»·PEaware :: N17MA KSMO-KAVX

N17MA :: KSMO-KAVX

FLIGHT INFORMATION

Flight Status: Arrived
Operator: Privately registered:
United States
More flights under this callsign
Pilot: Diego M. (28112)
Aircraft: CESSNA 172 SKYHAWK
(C172)
More flights by this aircraft type
Origin: KSMO Santa Monica Mun
United States
Destination: KAVX Catalina
United States
More flights between these airports :: More routes between these airports
Route: SMO SMO125 SXC350 SXC
File this flight plan on PilotEdge
Remarks: SMOP3
Altitude:
(Current/Filed)
4,000ft
Speed:
(Current/Filed)
120kts
Departed: 27-Jun-20 08:36 AM
Arrived: 27-Jun-20 09:22 AM
Distance/Time
Traveled:
37nm/0:46
Distance/Time
To Go:
Arrived

Flight Plot

Page will automatically refresh every two minutes.


Map Options




Map Legend


Flown Route
Filed Route
Departure Airport
Arrival Airport
Navaid (VOR, NDB)
Fix

Horizontal Profiles

Position Reports

Time Latitude Longitude Heading Altitude Ground
Speed
27-Jun-20 08:14 34.018424 -118.446805 315 181ft 0kts
27-Jun-20 08:15 34.018424 -118.446805 315 181ft 0kts
27-Jun-20 08:16 34.018424 -118.446805 315 181ft 0kts
27-Jun-20 08:17 34.018424 -118.446805 315 181ft 0kts
27-Jun-20 08:18 34.018424 -118.446805 315 181ft 0kts
27-Jun-20 08:19 34.018424 -118.446805 315 181ft 0kts
27-Jun-20 08:20 34.018424 -118.446805 315 181ft 0kts
27-Jun-20 08:21 34.018424 -118.446805 315 181ft 0kts
27-Jun-20 08:21 34.018424 -118.446805 315 181ft 0kts
27-Jun-20 08:23 34.018424 -118.446805 315 181ft 0kts
27-Jun-20 08:24 34.018424 -118.446805 315 181ft 0kts
27-Jun-20 08:25 34.018424 -118.446805 315 181ft 0kts
27-Jun-20 08:26 34.018424 -118.446805 315 181ft 0kts
27-Jun-20 08:26 34.018424 -118.446805 315 181ft 0kts
27-Jun-20 08:28 34.018424 -118.446805 315 181ft 0kts
27-Jun-20 08:28 34.018424 -118.446805 315 181ft 0kts
27-Jun-20 08:29 34.018527 -118.446913 326 181ft 2kts
27-Jun-20 08:30 34.018719 -118.446786 44 181ft 3kts
27-Jun-20 08:31 34.019440 -118.445934 46 181ft 0kts
27-Jun-20 08:32 34.019935 -118.445582 355 181ft 0kts
27-Jun-20 08:33 34.019935 -118.445582 355 181ft 0kts
27-Jun-20 08:34 34.020409 -118.445737 313 181ft 4kts
27-Jun-20 08:35 34.011183 -118.456709 223 406ft 97kts
27-Jun-20 08:36 33.990035 -118.481070 224 1115ft 109kts
27-Jun-20 08:37 33.981469 -118.515901 260 1814ft 109kts
27-Jun-20 08:38 33.991406 -118.544208 1 2496ft 107kts
27-Jun-20 08:39 34.006355 -118.520310 68 3113ft 105kts
27-Jun-20 08:40 34.012718 -118.493205 78 3547ft 92kts
27-Jun-20 08:41 34.014715 -118.465930 84 3992ft 104kts
27-Jun-20 08:42 33.988537 -118.441460 140 3995ft 131kts
27-Jun-20 08:43 33.967271 -118.412315 139 3996ft 133kts
27-Jun-20 08:44 33.934570 -118.396238 161 3995ft 134kts
27-Jun-20 08:45 33.897766 -118.381642 161 3997ft 135kts
27-Jun-20 08:46 33.862817 -118.367594 161 3995ft 135kts
27-Jun-20 08:47 33.828277 -118.353440 161 3988ft 129kts
27-Jun-20 08:48 33.794316 -118.339143 161 3984ft 129kts
27-Jun-20 08:49 33.760640 -118.325511 193 3970ft 127kts
27-Jun-20 08:50 33.731015 -118.333305 144 3952ft 129kts
27-Jun-20 08:51 33.702379 -118.306825 143 3949ft 130kts
27-Jun-20 08:52 33.673688 -118.280386 143 3946ft 130kts
27-Jun-20 08:53 33.644364 -118.282145 221 3926ft 125kts
27-Jun-20 08:54 33.617004 -118.307830 209 3921ft 126kts
27-Jun-20 08:55 33.583933 -118.321938 205 3919ft 126kts
27-Jun-20 08:56 33.552393 -118.338376 205 3910ft 117kts
27-Jun-20 08:57 33.523269 -118.353665 205 3905ft 112kts
27-Jun-20 08:58 33.494790 -118.368573 204 3903ft 111kts
27-Jun-20 08:59 33.466280 -118.383308 201 3903ft 111kts
27-Jun-20 09:00 33.437040 -118.395779 199 3903ft 111kts
27-Jun-20 09:01 33.407778 -118.407743 199 3902ft 108kts
27-Jun-20 09:02 33.380422 -118.418960 209 3894ft 101kts
27-Jun-20 09:03 33.364835 -118.445491 245 3892ft 98kts
27-Jun-20 09:04 33.341217 -118.456056 148 3884ft 96kts
27-Jun-20 09:05 33.348109 -118.434381 26 3876ft 87kts
27-Jun-20 09:06 33.371314 -118.420433 29 3887ft 98kts
27-Jun-20 09:07 33.396858 -118.415746 345 3886ft 101kts
27-Jun-20 09:08 33.425067 -118.414242 6 3861ft 101kts
27-Jun-20 09:09 33.452429 -118.410209 7 3551ft 99kts
27-Jun-20 09:10 33.479062 -118.406790 4 3375ft 89kts
27-Jun-20 09:11 33.505312 -118.404616 3 3383ft 98kts
27-Jun-20 09:12 33.532127 -118.403524 326 3379ft 99kts
27-Jun-20 09:13 33.553185 -118.425073 329 3376ft 98kts
27-Jun-20 09:14 33.561127 -118.407579 134 3364ft 99kts
27-Jun-20 09:15 33.536058 -118.390911 188 3151ft 117kts
27-Jun-20 09:16 33.502877 -118.397544 190 2451ft 122kts
27-Jun-20 09:17 33.473799 -118.403659 187 2325ft 98kts
27-Jun-20 09:18 33.447537 -118.407611 187 2301ft 95kts
27-Jun-20 09:19 33.422308 -118.407920 160 2139ft 77kts
27-Jun-20 09:20 33.406147 -118.413831 235 1606ft 55kts
27-Jun-20 09:21 33.404911 -118.415100 167 1606ft 2kts
27-Jun-20 09:22 33.403733 -118.415141 195 1606ft 3kts
27-Jun-20 09:23 33.403445 -118.415149 141 1606ft 0kts

Navigation Log

Ident Type
Flight plan parsing failed, navigation log unavailable